createdAt,value
2023-05-11T00:00:26.535Z,47.76
2023-05-11T00:03:29.493Z,47.89
2023-05-11T00:06:32.323Z,48.09
2023-05-11T00:09:35.581Z,48.18
2023-05-11T00:12:37.929Z,48.09
2023-05-11T00:15:41.093Z,48.03
2023-05-11T00:18:43.502Z,48.17
2023-05-11T00:21:46.116Z,48.28
2023-05-11T00:24:48.450Z,48.28
2023-05-11T00:27:51.255Z,48.42
2023-05-11T00:30:57.577Z,48.53
2023-05-11T00:34:00.398Z,48.71
2023-05-11T00:37:02.958Z,48.70
2023-05-11T00:40:06.443Z,48.75
2023-05-11T00:43:08.830Z,48.74
2023-05-11T00:46:11.480Z,48.79
2023-05-11T00:49:17.297Z,49.18
2023-05-11T00:52:21.757Z,49.32
2023-05-11T00:55:24.672Z,49.19
2023-05-11T00:58:27.316Z,49.50
2023-05-11T01:01:30.902Z,50.01
2023-05-11T01:04:34.098Z,49.89
2023-05-11T01:07:45.472Z,49.93
2023-05-11T01:11:07.825Z,50.04
2023-05-11T01:14:16.071Z,50.04
2023-05-11T01:17:30.947Z,50.01
2023-05-11T01:20:34.669Z,50.33
2023-05-11T01:23:56.358Z,50.09
2023-05-11T01:27:29.300Z,49.90
2023-05-11T01:31:11.792Z,50.04
2023-05-11T01:34:19.539Z,50.14
2023-05-11T01:37:23.633Z,50.08
2023-05-11T01:40:29.412Z,50.21
2023-05-11T01:43:35.389Z,50.32
2023-05-11T01:46:38.733Z,50.79
2023-05-11T01:49:43.903Z,52.55
2023-05-11T01:52:48.058Z,54.03
2023-05-11T01:55:52.594Z,54.92
2023-05-11T01:58:57.227Z,55.47
2023-05-11T02:02:02.435Z,55.57
2023-05-11T02:05:07.186Z,55.83
2023-05-11T02:08:11.845Z,56.20
2023-05-11T02:11:15.873Z,56.83
2023-05-11T02:14:22.641Z,56.98
2023-05-11T02:17:26.105Z,57.00
2023-05-11T02:20:28.662Z,56.83
2023-05-11T02:23:33.856Z,56.96
2023-05-11T02:26:36.330Z,56.56
2023-05-11T02:29:39.032Z,56.40
2023-05-11T02:32:49.627Z,56.19
2023-05-11T02:35:56.497Z,55.81
2023-05-11T02:39:08.494Z,55.21
2023-05-11T02:42:18.463Z,54.71
2023-05-11T02:45:23.508Z,54.46
2023-05-11T02:48:29.227Z,54.66
2023-05-11T02:51:39.604Z,54.68
2023-05-11T02:54:42.844Z,54.49
2023-05-11T02:57:45.955Z,54.52
2023-05-11T03:00:49.512Z,54.66
2023-05-11T03:03:52.048Z,54.67
2023-05-11T03:06:54.881Z,54.51
2023-05-11T03:09:57.579Z,54.68
2023-05-11T03:13:01.663Z,55.27
2023-05-11T03:16:06.031Z,55.41
2023-05-11T03:19:10.190Z,55.63
2023-05-11T03:22:14.073Z,56.03
2023-05-11T03:25:17.567Z,56.17
2023-05-11T03:28:24.255Z,56.15
2023-05-11T03:31:29.455Z,56.07
2023-05-11T03:34:33.756Z,55.92
2023-05-11T03:37:38.419Z,55.91
2023-05-11T03:40:42.722Z,55.60
2023-05-11T03:43:51.529Z,55.45
2023-05-11T03:46:55.765Z,55.21
2023-05-11T03:49:59.542Z,55.21
2023-05-11T03:53:02.805Z,55.15
2023-05-11T03:56:07.397Z,55.28
2023-05-11T03:59:14.948Z,55.37
2023-05-11T04:02:17.828Z,55.33
2023-05-11T04:05:20.544Z,55.66
2023-05-11T04:08:23.053Z,55.55
2023-05-11T04:11:27.476Z,55.89
2023-05-11T04:14:30.378Z,56.09
2023-05-11T04:17:32.995Z,56.31
2023-05-11T04:20:35.539Z,56.57
2023-05-11T04:23:38.350Z,56.84
2023-05-11T04:26:40.692Z,56.71
2023-05-11T04:29:45.319Z,56.74
2023-05-11T04:32:47.752Z,57.31
2023-05-11T04:35:54.502Z,57.40
2023-05-11T04:38:56.937Z,57.28
2023-05-11T04:42:00.929Z,57.57
2023-05-11T04:45:03.852Z,57.68
2023-05-11T04:48:07.074Z,57.60
2023-05-11T04:51:10.067Z,57.03
2023-05-11T04:54:14.118Z,57.05
2023-05-11T04:57:16.581Z,56.79
2023-05-11T05:00:21.856Z,54.30
2023-05-11T05:03:24.541Z,53.62
2023-05-11T05:06:27.422Z,52.81
2023-05-11T05:09:29.788Z,51.99
2023-05-11T05:12:32.710Z,51.08
2023-05-11T05:15:35.115Z,51.15
2023-05-11T05:18:38.158Z,50.85
2023-05-11T05:21:40.787Z,50.03
2023-05-11T05:24:43.417Z,50.00
2023-05-11T05:27:45.802Z,49.99
2023-05-11T05:30:50.124Z,49.92
2023-05-11T05:33:52.595Z,49.58
2023-05-11T05:36:55.536Z,49.36
2023-05-11T05:39:58.217Z,49.35
2023-05-11T05:43:01.290Z,49.23
2023-05-11T05:46:05.178Z,49.03
2023-05-11T05:49:07.919Z,48.70
2023-05-11T05:52:11.647Z,48.91
2023-05-11T05:55:15.446Z,48.03
2023-05-11T05:58:18.397Z,47.53
2023-05-11T06:01:22.183Z,46.95
2023-05-11T06:04:25.077Z,47.27
2023-05-11T06:07:29.124Z,47.22
2023-05-11T06:10:31.782Z,45.86
2023-05-11T06:13:34.161Z,44.94
2023-05-11T06:16:36.854Z,44.27
2023-05-11T06:19:40.587Z,43.71
2023-05-11T06:22:43.882Z,44.28
2023-05-11T06:25:47.018Z,44.84
2023-05-11T06:28:50.089Z,45.05
2023-05-11T06:31:54.429Z,44.94
2023-05-11T06:34:57.924Z,45.43
2023-05-11T06:38:00.324Z,44.78
2023-05-11T06:41:03.696Z,44.82
2023-05-11T06:44:06.258Z,44.44
2023-05-11T06:47:10.730Z,44.74
2023-05-11T06:50:13.137Z,43.69
2023-05-11T06:53:17.821Z,43.19
2023-05-11T06:56:20.486Z,43.02
2023-05-11T06:59:23.167Z,42.82
2023-05-11T07:02:25.523Z,43.43
2023-05-11T07:05:28.245Z,43.07
2023-05-11T07:08:30.671Z,42.60
2023-05-11T07:11:33.380Z,42.23
2023-05-11T07:14:35.747Z,41.74
2023-05-11T07:17:38.377Z,42.14
2023-05-11T07:20:40.970Z,41.68
2023-05-11T07:23:44.608Z,40.56
2023-05-11T07:26:47.025Z,40.98
2023-05-11T07:29:49.881Z,40.66
2023-05-11T07:32:52.300Z,41.08
2023-05-11T07:35:55.655Z,40.19
2023-05-11T07:38:59.568Z,40.34
2023-05-11T07:42:02.364Z,40.23
2023-05-11T07:45:05.162Z,40.09
2023-05-11T07:48:07.820Z,39.69
2023-05-11T07:51:10.132Z,39.99
2023-05-11T07:54:12.831Z,39.95
2023-05-11T07:57:15.824Z,40.48
2023-05-11T08:00:19.916Z,40.41
2023-05-11T08:03:23.103Z,39.91
2023-05-11T08:06:25.536Z,39.25
2023-05-11T08:09:28.186Z,39.39
2023-05-11T08:12:30.611Z,39.71
2023-05-11T08:15:33.849Z,38.77
2023-05-11T08:18:36.512Z,38.78
2023-05-11T08:21:39.335Z,38.47
2023-05-11T08:24:42.069Z,37.45
2023-05-11T08:27:44.881Z,37.46
2023-05-11T08:30:47.331Z,37.14
2023-05-11T08:33:50.087Z,37.35
2023-05-11T08:36:53.270Z,36.89
2023-05-11T08:39:55.867Z,36.49
2023-05-11T08:43:00.383Z,35.25
2023-05-11T08:46:05.225Z,35.03
2023-05-11T08:49:08.457Z,35.34
2023-05-11T08:52:12.650Z,35.86
2023-05-11T08:55:15.097Z,35.76
2023-05-11T08:58:24.685Z,35.63
2023-05-11T09:01:29.254Z,35.24
2023-05-11T09:04:33.478Z,34.29
2023-05-11T09:07:38.826Z,35.16
2023-05-11T09:10:43.625Z,35.26
2023-05-11T09:13:46.213Z,35.52
2023-05-11T09:16:49.084Z,35.04
2023-05-11T09:20:00.152Z,35.36
2023-05-11T09:23:02.911Z,36.08
2023-05-11T09:26:14.070Z,36.56
2023-05-11T09:29:19.893Z,36.20
2023-05-11T09:32:22.343Z,36.37
2023-05-11T09:35:30.545Z,36.04
2023-05-11T09:38:33.000Z,35.83
2023-05-11T09:41:35.976Z,35.58
2023-05-11T09:44:38.898Z,34.28
2023-05-11T09:47:41.674Z,34.67
2023-05-11T09:50:44.124Z,34.87
2023-05-11T09:53:46.749Z,34.50
2023-05-11T09:56:56.777Z,34.76
2023-05-11T10:00:00.364Z,34.88
2023-05-11T10:03:08.095Z,34.09
2023-05-11T10:06:11.116Z,32.73
2023-05-11T10:09:16.007Z,30.40
2023-05-11T10:12:22.747Z,31.65
2023-05-11T10:15:28.529Z,31.83
2023-05-11T10:18:32.638Z,32.40
2023-05-11T10:21:35.548Z,29.52
2023-05-11T10:24:38.958Z,30.33
2023-05-11T10:27:42.162Z,32.69
2023-05-11T10:30:45.872Z,33.17
2023-05-11T10:33:51.234Z,31.59
2023-05-11T10:36:56.189Z,31.64
2023-05-11T10:39:59.280Z,31.36
2023-05-11T10:43:04.680Z,30.83
2023-05-11T10:46:42.459Z,30.85
2023-05-11T10:50:13.764Z,29.44
2023-05-11T10:53:37.187Z,29.16
2023-05-11T10:57:01.617Z,28.89
2023-05-11T11:00:31.077Z,29.09
2023-05-11T11:03:34.027Z,29.47
2023-05-11T11:06:39.335Z,30.03
2023-05-11T11:09:53.471Z,30.44
2023-05-11T11:13:03.987Z,31.26
2023-05-11T11:16:06.662Z,30.94
2023-05-11T11:19:30.986Z,30.38
2023-05-11T11:22:38.352Z,30.76
2023-05-11T11:25:52.992Z,30.20
2023-05-11T11:28:58.395Z,30.39
2023-05-11T11:32:19.587Z,30.44
2023-05-11T11:35:41.777Z,30.80
2023-05-11T11:39:00.341Z,30.56
2023-05-11T11:42:06.932Z,29.17
2023-05-11T11:45:31.053Z,27.98
2023-05-11T11:48:42.564Z,26.92
2023-05-11T11:51:45.693Z,26.16
2023-05-11T11:54:48.405Z,26.97
2023-05-11T11:57:51.442Z,28.45
2023-05-11T12:00:54.454Z,29.67
2023-05-11T12:04:06.088Z,30.80
2023-05-11T12:07:10.085Z,30.58
2023-05-11T12:10:14.571Z,30.63
2023-05-11T12:13:18.236Z,31.16
2023-05-11T12:16:21.111Z,30.66
2023-05-11T12:19:24.828Z,29.76
2023-05-11T12:22:27.393Z,29.37
2023-05-11T12:25:29.746Z,29.34
2023-05-11T12:28:33.826Z,30.21
2023-05-11T12:31:42.657Z,29.86
2023-05-11T12:34:57.680Z,28.84
2023-05-11T12:38:02.387Z,29.15
2023-05-11T12:41:06.062Z,27.32
2023-05-11T12:44:08.799Z,27.47
2023-05-11T12:47:11.519Z,29.29
2023-05-11T12:50:14.100Z,30.46
2023-05-11T12:53:18.996Z,30.46
2023-05-11T12:56:21.695Z,30.11
2023-05-11T12:59:32.374Z,29.33
2023-05-11T13:02:35.222Z,29.74
2023-05-11T13:05:39.894Z,29.25
2023-05-11T13:08:46.746Z,29.30
2023-05-11T13:11:49.361Z,27.72
2023-05-11T13:15:14.263Z,28.10
2023-05-11T13:18:17.193Z,28.39
2023-05-11T13:21:19.741Z,29.03
2023-05-11T13:24:23.824Z,29.66
2023-05-11T13:27:26.169Z,29.64
2023-05-11T13:30:29.247Z,30.67
2023-05-11T13:33:32.104Z,30.24
2023-05-11T13:36:35.061Z,29.75
2023-05-11T13:39:37.464Z,29.17
2023-05-11T13:42:41.689Z,28.98
2023-05-11T13:45:44.095Z,29.54
2023-05-11T13:48:46.705Z,29.54
2023-05-11T13:51:49.140Z,29.35
2023-05-11T13:54:51.843Z,28.48
2023-05-11T13:57:54.323Z,28.41
2023-05-11T14:01:08.054Z,28.74
2023-05-11T14:04:11.944Z,28.15
2023-05-11T14:07:15.569Z,28.29
2023-05-11T14:10:21.053Z,28.36
2023-05-11T14:13:23.981Z,28.17
2023-05-11T14:16:26.932Z,28.29
2023-05-11T14:19:29.379Z,28.24
2023-05-11T14:22:32.051Z,28.45
2023-05-11T14:25:36.143Z,28.28
2023-05-11T14:28:40.076Z,28.16
2023-05-11T14:31:42.577Z,28.17
2023-05-11T14:34:45.449Z,27.93
2023-05-11T14:37:48.331Z,27.77
2023-05-11T14:40:52.418Z,28.00
2023-05-11T14:43:54.944Z,28.26
2023-05-11T14:46:57.831Z,28.26
2023-05-11T14:50:00.351Z,29.03
2023-05-11T14:53:03.082Z,29.36
2023-05-11T14:56:05.987Z,29.61
2023-05-11T14:59:08.742Z,29.53
2023-05-11T15:02:11.104Z,29.43
2023-05-11T15:05:13.794Z,29.68
2023-05-11T15:08:29.160Z,29.80
2023-05-11T15:11:33.534Z,29.81
2023-05-11T15:14:35.859Z,29.93
2023-05-11T15:17:38.594Z,30.05
2023-05-11T15:20:42.206Z,29.87
2023-05-11T15:23:44.884Z,29.76
2023-05-11T15:26:47.336Z,29.86
2023-05-11T15:29:50.004Z,30.21
2023-05-11T15:32:52.429Z,30.31
2023-05-11T15:35:55.118Z,30.83
2023-05-11T15:38:57.588Z,30.78
2023-05-11T15:42:00.179Z,31.07
2023-05-11T15:45:02.919Z,31.18
2023-05-11T15:48:05.925Z,31.68
2023-05-11T15:51:08.366Z,31.86
2023-05-11T15:54:11.090Z,32.21
2023-05-11T15:57:13.531Z,32.37
2023-05-11T16:00:16.625Z,32.61
2023-05-11T16:03:20.080Z,32.69
2023-05-11T16:06:22.817Z,32.95
2023-05-11T16:09:25.745Z,33.15
2023-05-11T16:12:28.144Z,33.46
2023-05-11T16:15:31.885Z,33.57
2023-05-11T16:18:34.844Z,33.75
2023-05-11T16:21:37.680Z,34.07
2023-05-11T16:24:40.121Z,34.01
2023-05-11T16:27:42.824Z,34.04
2023-05-11T16:30:45.397Z,34.24
2023-05-11T16:33:48.107Z,34.37
2023-05-11T16:36:50.406Z,34.51
2023-05-11T16:39:53.249Z,34.73
2023-05-11T16:42:56.006Z,34.90
2023-05-11T16:45:59.456Z,34.99
2023-05-11T16:49:02.354Z,35.19
2023-05-11T16:52:05.346Z,35.33
2023-05-11T16:55:08.624Z,35.43
2023-05-11T16:58:11.576Z,35.49
2023-05-11T17:01:15.069Z,36.08
2023-05-11T17:04:17.955Z,36.79
2023-05-11T17:07:20.420Z,38.00
2023-05-11T17:10:23.284Z,40.93
2023-05-11T17:13:26.822Z,41.43
2023-05-11T17:16:29.679Z,42.01
2023-05-11T17:19:32.040Z,41.77
2023-05-11T17:22:35.225Z,42.49
2023-05-11T17:25:37.759Z,43.12
2023-05-11T17:28:40.454Z,43.69
2023-05-11T17:31:42.991Z,44.17
2023-05-11T17:34:45.874Z,43.93
2023-05-11T17:37:48.181Z,44.45
2023-05-11T17:40:50.891Z,45.63
2023-05-11T17:43:53.312Z,46.21
2023-05-11T17:46:56.096Z,46.18
2023-05-11T17:49:58.754Z,46.24
2023-05-11T17:53:01.599Z,46.39
2023-05-11T17:56:04.093Z,46.71
2023-05-11T17:59:06.743Z,46.61
2023-05-11T18:02:09.542Z,46.11
2023-05-11T18:05:12.178Z,46.15
2023-05-11T18:08:15.165Z,45.78
2023-05-11T18:11:17.838Z,45.06
2023-05-11T18:14:20.433Z,44.73
2023-05-11T18:17:23.543Z,44.97
2023-05-11T18:20:26.210Z,45.15
2023-05-11T18:23:28.863Z,45.64
2023-05-11T18:26:31.493Z,46.00
2023-05-11T18:29:34.330Z,46.16
2023-05-11T18:32:36.788Z,45.91
2023-05-11T18:35:40.636Z,46.33
2023-05-11T18:38:43.878Z,46.62
2023-05-11T18:41:46.489Z,47.39
2023-05-11T18:44:48.832Z,47.30
2023-05-11T18:47:51.505Z,48.12
2023-05-11T18:50:57.500Z,47.85
2023-05-11T18:54:00.204Z,49.80
2023-05-11T18:57:02.574Z,50.66
2023-05-11T19:00:06.190Z,52.02
2023-05-11T19:03:09.162Z,53.01
2023-05-11T19:06:12.064Z,53.34
2023-05-11T19:09:14.444Z,54.48
2023-05-11T19:12:19.640Z,55.00
2023-05-11T19:15:22.063Z,54.92
2023-05-11T19:18:26.075Z,54.93
2023-05-11T19:21:29.043Z,55.28
2023-05-11T19:24:31.803Z,55.65
2023-05-11T19:27:34.310Z,56.04
2023-05-11T19:30:37.944Z,57.86
2023-05-11T19:33:40.631Z,58.73
2023-05-11T19:36:43.355Z,59.50
2023-05-11T19:39:45.740Z,59.00
2023-05-11T19:42:48.427Z,59.66
2023-05-11T19:45:50.998Z,60.48
2023-05-11T19:48:54.038Z,61.28
2023-05-11T19:51:56.392Z,63.42
2023-05-11T19:54:59.105Z,64.12
2023-05-11T19:58:02.119Z,64.45
2023-05-11T20:01:05.003Z,64.87
2023-05-11T20:04:08.835Z,65.32
2023-05-11T20:07:11.410Z,66.17
2023-05-11T20:10:14.079Z,67.12
2023-05-11T20:13:16.490Z,67.04
2023-05-11T20:16:19.184Z,67.41
2023-05-11T20:19:22.339Z,67.76
2023-05-11T20:22:24.970Z,67.69
2023-05-11T20:25:27.301Z,68.12
2023-05-11T20:28:30.052Z,68.39
2023-05-11T20:31:32.905Z,68.30
2023-05-11T20:34:35.724Z,67.55
2023-05-11T20:37:38.588Z,68.28
2023-05-11T20:40:41.421Z,68.60
2023-05-11T20:43:43.767Z,68.73
2023-05-11T20:46:50.004Z,68.83
2023-05-11T20:49:52.455Z,69.10
2023-05-11T20:52:55.135Z,69.25
2023-05-11T20:55:57.575Z,69.71
2023-05-11T20:59:00.395Z,69.04
2023-05-11T21:02:02.923Z,69.81
2023-05-11T21:05:06.059Z,70.75
2023-05-11T21:08:08.455Z,71.00
2023-05-11T21:11:11.081Z,71.32
2023-05-11T21:14:14.077Z,71.54
2023-05-11T21:17:17.167Z,71.69
2023-05-11T21:20:19.835Z,72.28
2023-05-11T21:23:22.641Z,71.76
2023-05-11T21:26:25.784Z,71.72
2023-05-11T21:29:28.465Z,70.78
2023-05-11T21:32:30.876Z,70.07
2023-05-11T21:35:33.820Z,71.35
2023-05-11T21:38:36.234Z,70.88
2023-05-11T21:41:39.477Z,71.37
2023-05-11T21:44:42.182Z,72.20
2023-05-11T21:47:44.960Z,72.44
2023-05-11T21:50:53.606Z,72.60
2023-05-11T21:53:56.273Z,72.75
2023-05-11T21:56:58.610Z,72.54
2023-05-11T22:00:01.291Z,72.61
2023-05-11T22:03:04.025Z,72.22
2023-05-11T22:06:06.947Z,72.12
2023-05-11T22:09:09.244Z,72.63
2023-05-11T22:12:12.034Z,72.54
2023-05-11T22:15:14.490Z,72.78
2023-05-11T22:18:18.794Z,72.64
2023-05-11T22:21:21.236Z,72.37
2023-05-11T22:24:26.975Z,71.56
2023-05-11T22:27:30.088Z,72.24
2023-05-11T22:30:32.820Z,72.49
2023-05-11T22:33:35.134Z,72.18
2023-05-11T22:36:37.747Z,72.28
2023-05-11T22:39:40.180Z,72.57
2023-05-11T22:42:42.821Z,73.12
2023-05-11T22:45:45.154Z,73.11
2023-05-11T22:48:47.962Z,73.32
2023-05-11T22:51:50.274Z,73.64
2023-05-11T22:54:58.518Z,73.23
2023-05-11T22:58:00.831Z,72.60
2023-05-11T23:01:03.694Z,72.73
2023-05-11T23:04:06.207Z,73.00
2023-05-11T23:07:12.176Z,74.12
2023-05-11T23:10:14.552Z,73.47
2023-05-11T23:13:17.759Z,74.09
2023-05-11T23:16:20.422Z,74.59
2023-05-11T23:19:25.129Z,74.53
2023-05-11T23:22:27.485Z,73.44
2023-05-11T23:25:32.560Z,73.51
2023-05-11T23:28:35.436Z,74.75
2023-05-11T23:31:38.347Z,73.37
2023-05-11T23:34:40.893Z,74.80
2023-05-11T23:37:43.849Z,74.72
2023-05-11T23:40:46.370Z,75.01
2023-05-11T23:43:48.964Z,74.58
2023-05-11T23:46:51.447Z,75.65
2023-05-11T23:49:54.102Z,74.76
2023-05-11T23:52:56.980Z,75.20
2023-05-11T23:55:59.562Z,75.60
2023-05-11T23:59:01.961Z,76.80
